Bei Facebook empfehlenBei Twitter postenGoogle plusPinterest

Das Wetter im Erzgebirge am 11.12.2016

Wetter und Klima am 11.12.2016 Holzhau im Erzgebirge (630m ü.NN)
Letzte gemessene Temperatur und Uhrzeit der Messung23:45:00 Uhr2.20 °C
Temperatur (Maximum / Höchstwert) und Uhrzeit der Messung09:15:00 Uhr5.80 °C
Temperatur (Minimum / Tiefstwert) und Uhrzeit der Messung23:45:002.20 °C
Errechneter Absolutwert der Temperaturschwankungen zwischen Tmin und Tmax des Tages3.60 K
Errechnete Tagesmitteltemperatur3.71458 °C
Gesamt - Niederschlag des Tages (in flüssiger Form)2.59 Liter / m²
Luftdruck (Maximum / Höchstwert) und Zeitpunkt der Messung00:15:00 Uhr1015.10 hPa
Luftdruck (Minimum / Tiefstwert) und Zeitpunkt der Messung08:30:00 Uhr1007.60 hPa
Errechneter Absolutwert der Luftdruckschwankungen des Tages7.50 hPa
Höchste gemessene Windgeschwindigkeit und Uhrzeit der Messung23:45:00 Uhr0.00 km/h
Errechnete Windhäufigkeit in Relation zu den Messwerten des Tages0.00000 %
Niedrigste Windkühle (Windchill) und Zeitpunkt der Messung23:45:00 Uhr2.20 °C
Taupunkt (Maximum / Höchstwert) und Uhrzeit der Messung09:15:00 Uhr4.90 °C
Taupunkt (Minimum / Tiefstwert) und Uhrzeit der Messung23:45:001.60 °C
Anzahl der automatisch eingelesenen Messwerte 96

Detaillierte Wetter- und Klima- Messwerte für den 11.12.2016 in Holzhau im Erzgebirge (630m ü.NN)
ZeitTemperaturLuftdruckRel. LuftfeuchteWindWindrichtungWindchillTaupunktNiederschlag l/m²
23:45:002.20 °C1012.20 hPa96.00 %1.60 °C2.59
23:30:002.30 °C1012.20 hPa96.00 %1.70 °C2.59
23:15:002.30 °C1012.30 hPa96.00 %1.70 °C2.59
23:00:002.40 °C1012.30 hPa96.00 %1.80 °C2.07
22:45:002.50 °C1012.20 hPa96.00 %1.90 °C1.55
22:30:002.50 °C1012.00 hPa96.00 %1.90 °C1.55
22:15:002.60 °C1012.10 hPa96.00 %2.00 °C1.55
22:00:002.60 °C1011.90 hPa96.00 %2.00 °C1.55
21:45:002.70 °C1011.90 hPa96.00 %2.10 °C1.55
21:30:002.70 °C1012.10 hPa96.00 %2.10 °C1.55
21:15:002.70 °C1012.10 hPa96.00 %2.10 °C1.55
21:00:002.80 °C1012.10 hPa96.00 %2.20 °C1.55
20:45:002.80 °C1012.00 hPa96.00 %2.20 °C1.55
20:30:002.80 °C1012.10 hPa96.00 %2.20 °C1.55
20:15:002.80 °C1011.80 hPa95.00 %2.10 °C1.55
20:00:002.90 °C1011.90 hPa96.00 %2.30 °C1.55
19:45:002.90 °C1011.80 hPa96.00 %2.30 °C1.55
19:30:002.90 °C1012.10 hPa96.00 %2.30 °C1.55
19:15:002.90 °C1012.10 hPa96.00 %2.30 °C1.55
19:00:002.90 °C1012.00 hPa96.00 %2.30 °C1.55
18:45:002.90 °C1012.00 hPa96.00 %2.30 °C1.55
18:30:002.90 °C1012.00 hPa96.00 %2.30 °C1.55
18:15:002.90 °C1012.00 hPa96.00 %2.30 °C1.55
18:00:002.80 °C1012.00 hPa96.00 %2.20 °C1.55
17:45:002.60 °C1011.80 hPa95.00 %1.90 °C1.55
17:30:002.60 °C1011.80 hPa95.00 %1.90 °C1.55
17:15:002.90 °C1012.00 hPa95.00 %2.20 °C1.55
17:00:003.00 °C1011.80 hPa96.00 %2.40 °C1.55
16:45:002.90 °C1011.70 hPa96.00 %2.30 °C1.55
16:30:002.90 °C1011.60 hPa96.00 %2.30 °C1.55
16:15:002.90 °C1011.60 hPa96.00 %2.30 °C1.55
16:00:002.90 °C1011.60 hPa96.00 %2.30 °C1.55
15:45:002.90 °C1011.50 hPa96.00 %2.30 °C1.55
15:30:003.00 °C1011.50 hPa96.00 %2.40 °C1.55
15:15:003.10 °C1011.50 hPa96.00 %2.50 °C1.55
15:00:002.90 °C1011.30 hPa95.00 %2.20 °C1.55
14:45:002.90 °C1011.40 hPa95.00 %2.20 °C1.55
14:30:002.80 °C1011.20 hPa95.00 %2.10 °C1.03
14:15:003.00 °C1011.20 hPa95.00 %2.30 °C0.52
14:00:003.00 °C1010.90 hPa95.00 %2.30 °C0.52
13:45:003.10 °C1010.70 hPa95.00 %2.40 °C0.52
13:30:003.10 °C1010.50 hPa95.00 %2.40 °C0.52
13:15:003.10 °C1010.40 hPa95.00 %2.40 °C0.52
13:00:003.30 °C1010.10 hPa95.00 %2.60 °C0.52
12:45:003.40 °C1009.70 hPa95.00 %2.70 °C0.52
12:30:003.80 °C1009.70 hPa95.00 %3.10 °C0.52
12:15:004.30 °C1009.50 hPa95.00 %3.60 °C0.52
12:00:004.50 °C1008.50 hPa95.00 %3.80 °C0.52
11:45:004.70 °C1008.20 hPa94.00 %3.80 °C0.52
11:30:004.80 °C1007.90 hPa94.00 %3.90 °C0.52
11:15:004.90 °C1007.90 hPa94.00 %4.00 °C0.52
11:00:004.90 °C1008.00 hPa94.00 %4.00 °C0.52
10:45:005.10 °C1008.00 hPa93.00 %4.10 °C0.52
10:30:005.30 °C1008.00 hPa93.00 %4.30 °C0.52
10:15:005.40 °C1007.90 hPa93.00 %4.40 °C0.52
10:00:005.40 °C1007.80 hPa94.00 %4.50 °C0.52
09:45:005.50 °C1007.80 hPa94.00 %4.60 °C0.52
09:30:005.60 °C1007.90 hPa94.00 %4.70 °C0.52
09:15:005.80 °C1007.80 hPa94.00 %4.90 °C0.52
09:00:005.80 °C1007.80 hPa94.00 %4.90 °C0.52
08:45:005.80 °C1007.70 hPa94.00 %4.90 °C0.52
08:30:005.60 °C1007.60 hPa93.00 %4.60 °C0.52
08:15:005.50 °C1007.80 hPa93.00 %4.50 °C0.52
08:00:005.30 °C1008.20 hPa93.00 %4.30 °C0.52
07:45:005.10 °C1008.50 hPa93.00 %4.10 °C0.52
07:30:005.00 °C1008.50 hPa92.00 %3.80 °C0.52
07:15:004.90 °C1008.60 hPa92.00 %3.70 °C0.52
07:00:004.90 °C1008.90 hPa92.00 %3.70 °C0.52
06:45:004.90 °C1009.20 hPa92.00 %3.70 °C0.52
06:30:004.90 °C1009.40 hPa92.00 %3.70 °C0.52
06:15:004.90 °C1009.60 hPa92.00 %3.70 °C0.52
06:00:004.80 °C1009.70 hPa92.00 %3.60 °C0.52
05:45:004.70 °C1010.30 hPa92.00 %3.50 °C0.52
05:30:004.80 °C1010.50 hPa92.00 %3.60 °C0.52
05:15:004.80 °C1010.60 hPa92.00 %3.60 °C0.52
05:00:004.70 °C1011.00 hPa92.00 %3.50 °C0.52
04:45:004.40 °C1011.30 hPa92.00 %3.20 °C0.52
04:30:004.10 °C1011.50 hPa92.00 %2.90 °C0.52
04:15:003.60 °C1011.60 hPa92.00 %2.40 °C 
04:00:003.80 °C1011.80 hPa92.00 %2.60 °C 
03:45:003.90 °C1012.10 hPa92.00 %2.70 °C 
03:30:003.90 °C1012.40 hPa92.00 %2.70 °C 
03:15:003.90 °C1012.50 hPa92.00 %2.70 °C 
03:00:003.40 °C1012.90 hPa91.00 %2.10 °C 
02:45:003.40 °C1013.20 hPa91.00 %2.10 °C 
02:30:003.50 °C1013.30 hPa91.00 %2.20 °C 
02:15:003.50 °C1013.50 hPa91.00 %2.20 °C 
02:00:003.50 °C1013.60 hPa91.00 %2.20 °C 
01:45:003.80 °C1013.80 hPa90.00 %2.30 °C 
01:30:003.80 °C1014.20 hPa90.00 %2.30 °C 
01:15:003.60 °C1014.40 hPa90.00 %2.10 °C 
01:00:003.60 °C1014.70 hPa90.00 %2.10 °C 
00:45:003.10 °C1014.70 hPa90.00 %1.60 °C 
00:30:003.30 °C1015.00 hPa89.00 %1.70 °C 
00:15:003.30 °C1015.10 hPa89.00 %1.70 °C 
00:00:003.80 °C1015.10 hPa88.00 %2.00 °C 

Permanenter Link zu dieser Seite: Wetter im Erzgebirge am 11.12.2016
Performance-Info: Die Erstellung der Seite / Statistik(en) / Tabelle(n) erforderte 5 Datenbankserver-Abfrage(n) und dauerte 100 Millisekunden. (Dieser Messwert ist von der Gesamt-Auslastung des Servers abhängig.)
Erzgebirge - Wetter | Erzgebirge - Wetter (Mobilgeräte) | Komplette Klimadatenbank